Time;durP1;ratioP1;P1;durP2;ratioP2;P2;SDS_P1;SDS_P2;PMS_P1;PMS_P2;Temp;Humidity;BMP_temperature;BMP_pressure;BME280_temperature;BME280_humidity;BME280_pressure;Samples;Min_cycle;Max_cycle;Signal;HPM_P1;HPM_P2
2021/07/02 00:02:02;;;;;;;31.00;17.35;;;;;;;;;;4933291;28;20522;-83
2021/07/02 00:04:28;;;;;;;33.58;16.75;;;;;;;;;;4944937;28;20456;-83
2021/07/02 00:06:55;;;;;;;28.42;16.67;;;;;;;;;;4941358;28;20424;-83
2021/07/02 00:09:21;;;;;;;26.00;16.05;;;;;;;;;;4945398;28;20055;-83
2021/07/02 00:11:48;;;;;;;31.13;16.85;;;;;;;;;;4939057;28;20134;-83
2021/07/02 00:14:14;;;;;;;30.42;16.50;;;;;;;;;;4952161;28;20051;-83
2021/07/02 00:16:40;;;;;;;27.10;16.38;;;;;;;;;;4951786;28;20461;-87
2021/07/02 00:19:07;;;;;;;31.48;16.42;;;;;;;;;;4933993;28;20082;-84
2021/07/02 00:21:34;;;;;;;33.72;16.85;;;;;;;;;;4946386;28;20492;-83
2021/07/02 00:24:00;;;;;;;31.60;17.65;;;;;;;;;;4934304;28;20765;-83
2021/07/02 00:26:26;;;;;;;30.75;16.80;;;;;;;;;;4946031;28;20095;-83
2021/07/02 00:28:52;;;;;;;36.58;17.73;;;;;;;;;;4934433;28;20052;-83
2021/07/02 00:31:18;;;;;;;31.10;17.67;;;;;;;;;;4939318;28;20055;-83
2021/07/02 00:33:45;;;;;;;32.33;17.23;;;;;;;;;;4932223;29;20174;-84
2021/07/02 00:36:11;;;;;;;31.55;17.27;;;;;;;;;;4935811;28;20050;-80
2021/07/02 00:38:37;;;;;;;34.40;16.90;;;;;;;;;;4951143;28;20051;-83
2021/07/02 00:41:03;;;;;;;36.17;16.98;;;;;;;;;;4950273;28;20235;-83
2021/07/02 00:43:29;;;;;;;33.45;17.02;;;;;;;;;;4952120;28;20094;-83
2021/07/02 00:45:56;;;;;;;34.55;17.48;;;;;;;;;;4949819;28;20082;-83
2021/07/02 00:48:22;;;;;;;30.98;16.23;;;;;;;;;;4934420;28;20503;-83
2021/07/02 00:50:49;;;;;;;35.92;17.10;;;;;;;;;;4949887;28;20059;-83
2021/07/02 00:53:16;;;;;;;26.92;14.82;;;;;;;;;;4943678;28;20075;-83
2021/07/02 00:55:45;;;;;;;32.58;17.40;;;;;;;;;;4934443;28;20142;-87
2021/07/02 00:58:13;;;;;;;30.60;15.93;;;;;;;;;;4943818;28;20062;-83
2021/07/02 01:00:40;;;;;;;31.58;16.00;;;;;;;;;;4950786;28;20447;-83
2021/07/02 01:03:06;;;;;;;28.50;14.93;;;;;;;;;;4950310;28;20138;-83
2021/07/02 01:05:32;;;;;;;25.90;14.95;;;;;;;;;;4951655;28;20138;-82
2021/07/02 01:08:00;;;;;;;26.80;15.38;;;;;;;;;;4935128;28;20491;-82
2021/07/02 01:10:26;;;;;;;33.17;16.38;;;;;;;;;;4951645;28;20051;-83
2021/07/02 01:12:52;;;;;;;32.03;15.95;;;;;;;;;;4936053;28;20117;-82
2021/07/02 01:15:20;;;;;;;31.50;15.48;;;;;;;;;;4971203;28;20066;-82
2021/07/02 01:17:46;;;;;;;26.70;15.05;;;;;;;;;;4943711;28;20051;-84
2021/07/02 01:20:12;;;;;;;30.25;16.58;;;;;;;;;;4934598;29;20146;-82
2021/07/02 01:22:39;;;;;;;30.60;17.00;;;;;;;;;;4951418;28;20051;-82
2021/07/02 01:25:06;;;;;;;23.15;13.82;;;;;;;;;;4950825;28;20087;-83
2021/07/02 01:27:33;;;;;;;32.33;16.15;;;;;;;;;;4937003;28;20063;-82
2021/07/02 01:29:59;;;;;;;28.42;15.05;;;;;;;;;;4932872;28;20126;-83
2021/07/02 01:32:26;;;;;;;30.05;14.80;;;;;;;;;;4937507;28;20575;-82
2021/07/02 01:34:52;;;;;;;32.00;16.15;;;;;;;;;;4950445;28;20047;-85
2021/07/02 01:37:18;;;;;;;27.17;13.95;;;;;;;;;;4932989;28;20051;-83
2021/07/02 01:39:45;;;;;;;27.05;14.05;;;;;;;;;;4951656;28;20054;-85
2021/07/02 01:42:11;;;;;;;31.25;15.55;;;;;;;;;;4948712;28;20047;-82
2021/07/02 01:44:50;;;;;;;31.63;14.95;;;;;;;;;;4948976;28;20376;-82
2021/07/02 01:47:16;;;;;;;30.52;15.52;;;;;;;;;;4947611;28;20062;-82
2021/07/02 01:49:42;;;;;;;30.30;14.40;;;;;;;;;;4950239;28;20087;-81
2021/07/02 01:52:08;;;;;;;27.70;15.55;;;;;;;;;;4933326;28;20547;-83
2021/07/02 01:54:35;;;;;;;28.75;14.70;;;;;;;;;;4933911;28;20055;-82
2021/07/02 01:57:04;;;;;;;28.08;13.95;;;;;;;;;;4931701;28;20480;-86
2021/07/02 01:59:31;;;;;;;29.83;15.10;;;;;;;;;;4932269;28;20627;-84
2021/07/02 02:01:57;;;;;;;26.52;15.15;;;;;;;;;;4946403;28;20059;-82
2021/07/02 02:04:23;;;;;;;28.27;15.15;;;;;;;;;;4950418;28;20142;-82
2021/07/02 02:06:49;;;;;;;27.83;14.95;;;;;;;;;;4949150;28;20114;-82
2021/07/02 02:09:16;;;;;;;24.75;13.43;;;;;;;;;;4949185;28;20047;-82
2021/07/02 02:11:42;;;;;;;25.50;14.15;;;;;;;;;;4949185;28;20475;-84
2021/07/02 02:14:10;;;;;;;25.95;14.20;;;;;;;;;;4940636;28;20047;-84
2021/07/02 02:16:37;;;;;;;23.50;13.95;;;;;;;;;;4941016;28;20059;-84
2021/07/02 02:19:04;;;;;;;27.15;14.18;;;;;;;;;;4949426;28;20066;-82
2021/07/02 02:21:30;;;;;;;32.22;14.13;;;;;;;;;;4933488;28;20055;-83
2021/07/02 02:23:57;;;;;;;25.50;13.88;;;;;;;;;;4932033;28;20142;-83
2021/07/02 02:26:24;;;;;;;25.42;13.30;;;;;;;;;;4933025;28;20134;-83
2021/07/02 02:28:50;;;;;;;24.42;14.13;;;;;;;;;;4948302;28;20047;-84
2021/07/02 02:31:16;;;;;;;30.55;14.93;;;;;;;;;;4951145;28;20055;-83
2021/07/02 02:33:43;;;;;;;28.65;14.63;;;;;;;;;;4933417;29;20505;-83
2021/07/02 02:36:09;;;;;;;20.13;12.70;;;;;;;;;;4932781;28;20075;-81
2021/07/02 02:38:35;;;;;;;26.63;15.02;;;;;;;;;;4930936;29;20061;-83
2021/07/02 02:41:02;;;;;;;27.38;14.02;;;;;;;;;;4929260;29;20134;-83
2021/07/02 02:43:29;;;;;;;24.63;13.82;;;;;;;;;;4930891;29;20056;-83
2021/07/02 02:45:55;;;;;;;25.45;14.45;;;;;;;;;;4940883;28;20067;-83
2021/07/02 02:48:21;;;;;;;24.80;14.50;;;;;;;;;;4933316;28;20094;-83
2021/07/02 02:50:47;;;;;;;22.35;13.80;;;;;;;;;;4949665;28;20062;-85
2021/07/02 02:53:14;;;;;;;31.35;15.75;;;;;;;;;;4950413;28;20138;-83
2021/07/02 02:55:40;;;;;;;26.23;14.88;;;;;;;;;;4948455;28;20054;-83
2021/07/02 02:58:06;;;;;;;24.75;14.82;;;;;;;;;;4949066;28;20082;-82
2021/07/02 03:00:33;;;;;;;26.63;14.93;;;;;;;;;;4948758;28;20053;-82
2021/07/02 03:02:59;;;;;;;26.55;14.77;;;;;;;;;;4947973;28;20099;-84
2021/07/02 03:05:25;;;;;;;23.70;14.88;;;;;;;;;;4949776;28;20118;-82
2021/07/02 03:07:55;;;;;;;23.77;15.10;;;;;;;;;;4949008;28;20048;-84
2021/07/02 03:10:21;;;;;;;26.15;14.40;;;;;;;;;;4946983;28;20054;-82
2021/07/02 03:12:47;;;;;;;25.27;16.63;;;;;;;;;;4947755;28;20526;-87
2021/07/02 03:15:14;;;;;;;25.70;16.20;;;;;;;;;;4950546;28;20058;-83
2021/07/02 03:17:41;;;;;;;24.98;15.20;;;;;;;;;;4948688;28;20058;-83
2021/07/02 03:20:08;;;;;;;25.42;15.10;;;;;;;;;;4950710;28;20135;-83
2021/07/02 03:22:34;;;;;;;23.08;14.68;;;;;;;;;;4951392;28;20085;-84
2021/07/02 03:25:01;;;;;;;27.27;16.55;;;;;;;;;;4951762;28;20047;-82
2021/07/02 03:27:27;;;;;;;23.75;15.38;;;;;;;;;;4937608;28;20114;-84
2021/07/02 03:29:53;;;;;;;26.00;16.10;;;;;;;;;;4932671;29;20059;-83
2021/07/02 03:32:19;;;;;;;25.83;15.68;;;;;;;;;;4947924;28;20054;-85
2021/07/02 03:34:47;;;;;;;24.83;17.10;;;;;;;;;;4951898;28;20518;-82
2021/07/02 03:37:15;;;;;;;25.25;14.00;;;;;;;;;;4953234;28;20381;-84
2021/07/02 03:39:41;;;;;;;24.95;16.25;;;;;;;;;;4953498;28;20053;-82
2021/07/02 03:42:07;;;;;;;19.30;12.57;;;;;;;;;;4952622;28;20706;-82
2021/07/02 03:44:34;;;;;;;20.60;13.15;;;;;;;;;;4934958;28;20051;-82
2021/07/02 03:47:00;;;;;;;19.50;12.27;;;;;;;;;;4952625;28;20043;-83
2021/07/02 03:49:27;;;;;;;25.48;14.85;;;;;;;;;;4953366;28;20047;-82
2021/07/02 03:51:53;;;;;;;22.88;13.45;;;;;;;;;;4952008;28;20093;-85
2021/07/02 03:54:19;;;;;;;23.13;13.90;;;;;;;;;;4952188;28;20131;-83
2021/07/02 03:59:31;;;;;;;21.92;14.02;;;;;;;;;;4940175;28;20062;-83
2021/07/02 04:01:57;;;;;;;20.08;12.27;;;;;;;;;;4952301;28;20051;-83
2021/07/02 04:04:23;;;;;;;21.58;13.65;;;;;;;;;;4943898;28;20546;-83
2021/07/02 04:06:49;;;;;;;19.02;13.52;;;;;;;;;;4946925;28;20055;-84
2021/07/02 04:09:16;;;;;;;21.42;12.55;;;;;;;;;;4952528;28;20051;-83
2021/07/02 04:11:42;;;;;;;20.30;11.88;;;;;;;;;;4952784;28;20063;-83
2021/07/02 04:14:08;;;;;;;18.77;12.32;;;;;;;;;;4943035;28;20093;-82
2021/07/02 04:16:34;;;;;;;17.45;12.23;;;;;;;;;;4951733;28;20135;-82
2021/07/02 04:19:00;;;;;;;18.42;11.75;;;;;;;;;;4950594;28;20630;-83
2021/07/02 04:21:27;;;;;;;18.15;11.98;;;;;;;;;;4951673;28;20403;-83
2021/07/02 04:23:53;;;;;;;20.25;12.13;;;;;;;;;;4950458;28;20059;-87
2021/07/02 04:26:20;;;;;;;20.85;13.90;;;;;;;;;;4952735;28;20047;-83
2021/07/02 04:28:49;;;;;;;20.27;12.68;;;;;;;;;;4943393;28;20051;-83
2021/07/02 04:31:15;;;;;;;23.73;13.38;;;;;;;;;;4932065;29;20076;-83
2021/07/02 04:33:41;;;;;;;20.60;13.18;;;;;;;;;;4934369;29;20063;-85
2021/07/02 04:36:07;;;;;;;20.23;12.43;;;;;;;;;;4950701;28;20051;-83
2021/07/02 04:38:33;;;;;;;21.25;12.90;;;;;;;;;;4952145;28;20055;-82
2021/07/02 04:40:59;;;;;;;18.48;12.15;;;;;;;;;;4951735;28;20051;-83
2021/07/02 04:43:25;;;;;;;19.42;12.32;;;;;;;;;;4949201;28;20069;-83
2021/07/02 04:45:52;;;;;;;21.75;12.93;;;;;;;;;;4952140;28;20047;-86
2021/07/02 04:48:18;;;;;;;19.25;12.13;;;;;;;;;;4951520;28;20126;-83
2021/07/02 04:50:44;;;;;;;18.67;12.70;;;;;;;;;;4938523;28;20111;-83
2021/07/02 04:53:10;;;;;;;17.17;12.23;;;;;;;;;;4934332;29;19929;-83
2021/07/02 04:55:36;;;;;;;20.42;12.45;;;;;;;;;;4951306;28;20054;-83
2021/07/02 04:58:06;;;;;;;19.77;11.95;;;;;;;;;;4951176;28;20051;-83
2021/07/02 05:00:32;;;;;;;22.95;13.32;;;;;;;;;;4934892;28;20052;-83
2021/07/02 05:02:58;;;;;;;19.92;12.45;;;;;;;;;;4950200;28;20044;-83
2021/07/02 05:05:24;;;;;;;20.02;12.25;;;;;;;;;;4950636;28;20059;-83
2021/07/02 05:07:51;;;;;;;18.02;12.63;;;;;;;;;;4946004;28;20055;-83
2021/07/02 05:10:17;;;;;;;18.23;11.90;;;;;;;;;;4931520;29;20055;-83
2021/07/02 05:12:43;;;;;;;19.27;11.93;;;;;;;;;;4935711;28;20055;-82
2021/07/02 05:15:10;;;;;;;19.70;11.98;;;;;;;;;;4969113;28;20055;-83
2021/07/02 05:17:37;;;;;;;19.20;12.10;;;;;;;;;;4971039;28;20067;-83
2021/07/02 05:20:04;;;;;;;18.55;11.57;;;;;;;;;;4970163;28;20046;-82
2021/07/02 05:22:30;;;;;;;15.80;11.20;;;;;;;;;;4964777;28;20403;-83
2021/07/02 05:24:56;;;;;;;17.80;11.82;;;;;;;;;;4950771;28;20047;-87
2021/07/02 05:27:23;;;;;;;17.52;11.85;;;;;;;;;;4946737;28;20075;-83
2021/07/02 05:29:49;;;;;;;15.55;10.90;;;;;;;;;;4931746;28;20040;-83
2021/07/02 05:32:15;;;;;;;15.73;11.52;;;;;;;;;;4950140;28;20058;-83
2021/07/02 05:34:41;;;;;;;14.82;11.07;;;;;;;;;;4950164;28;20495;-83
2021/07/02 05:37:08;;;;;;;16.77;11.57;;;;;;;;;;4950567;28;20087;-83
2021/07/02 05:39:34;;;;;;;15.73;11.38;;;;;;;;;;4951247;28;20059;-82
2021/07/02 05:42:00;;;;;;;16.17;11.18;;;;;;;;;;4947286;28;20057;-83
2021/07/02 05:44:26;;;;;;;15.13;11.18;;;;;;;;;;4950688;28;20118;-83
2021/07/02 05:46:53;;;;;;;18.15;10.55;;;;;;;;;;4939675;28;20404;-83
2021/07/02 05:49:19;;;;;;;20.30;11.75;;;;;;;;;;4949966;28;20566;-83
2021/07/02 05:51:45;;;;;;;15.52;10.15;;;;;;;;;;4950086;28;20098;-84
2021/07/02 05:54:12;;;;;;;16.15;11.52;;;;;;;;;;4949584;28;20121;-84
2021/07/02 05:56:39;;;;;;;16.15;11.18;;;;;;;;;;4950743;28;20059;-83
2021/07/02 05:59:05;;;;;;;14.55;11.30;;;;;;;;;;4948737;28;20051;-84
2021/07/02 06:01:31;;;;;;;18.00;11.80;;;;;;;;;;4949871;28;20058;-85
2021/07/02 06:03:57;;;;;;;16.00;11.18;;;;;;;;;;4954678;28;20065;-86
2021/07/02 06:06:26;;;;;;;15.77;12.05;;;;;;;;;;4964698;28;20062;-84
2021/07/02 06:08:53;;;;;;;16.48;11.88;;;;;;;;;;4950872;28;20062;-84
2021/07/02 06:11:20;;;;;;;15.32;11.25;;;;;;;;;;4962672;28;20043;-84
2021/07/02 06:13:46;;;;;;;15.75;10.68;;;;;;;;;;4964732;28;20055;-84
2021/07/02 06:16:13;;;;;;;15.98;11.57;;;;;;;;;;4947553;28;20059;-84
2021/07/02 06:18:39;;;;;;;14.77;11.55;;;;;;;;;;4956450;28;20055;-84
2021/07/02 06:21:05;;;;;;;16.60;11.52;;;;;;;;;;4952157;28;20056;-84
2021/07/02 06:23:35;;;;;;;15.70;11.27;;;;;;;;;;4938519;28;20051;-82
2021/07/02 06:26:04;;;;;;;16.52;11.55;;;;;;;;;;4931596;28;20127;-82
2021/07/02 06:28:31;;;;;;;15.55;11.20;;;;;;;;;;4949014;28;20047;-82
2021/07/02 06:30:58;;;;;;;18.00;11.77;;;;;;;;;;4949613;28;20069;-87
2021/07/02 06:33:24;;;;;;;18.25;11.57;;;;;;;;;;4964581;28;20058;-82
2021/07/02 06:35:51;;;;;;;17.17;11.82;;;;;;;;;;4965161;28;20047;-82
2021/07/02 06:38:17;;;;;;;15.68;11.45;;;;;;;;;;4949926;28;20067;-83
2021/07/02 06:40:44;;;;;;;17.42;12.48;;;;;;;;;;4949820;28;20059;-82
2021/07/02 06:43:10;;;;;;;15.20;11.57;;;;;;;;;;4951778;28;20139;-84
2021/07/02 06:45:40;;;;;;;18.92;11.63;;;;;;;;;;4932313;28;20059;-84
2021/07/02 06:48:06;;;;;;;17.45;12.05;;;;;;;;;;4947553;28;20059;-83
2021/07/02 06:50:34;;;;;;;15.35;11.20;;;;;;;;;;4956919;28;20055;-83
2021/07/02 06:53:03;;;;;;;16.83;11.88;;;;;;;;;;4955109;28;20093;-83
2021/07/02 06:55:51;;;;;;;16.08;11.73;;;;;;;;;;4943749;28;20051;-84
2021/07/02 06:58:18;;;;;;;18.25;11.27;;;;;;;;;;4956354;28;20410;-86
2021/07/02 07:00:44;;;;;;;15.57;10.57;;;;;;;;;;4942076;28;20063;-83
2021/07/02 07:03:15;;;;;;;16.05;11.52;;;;;;;;;;4964506;28;20039;-83
2021/07/02 07:05:42;;;;;;;17.65;11.52;;;;;;;;;;4948562;28;20130;-83
2021/07/02 07:08:09;;;;;;;19.10;11.52;;;;;;;;;;4924283;28;20144;-83
2021/07/02 07:10:35;;;;;;;18.45;11.43;;;;;;;;;;4949123;28;20066;-83
2021/07/02 07:13:04;;;;;;;15.27;10.48;;;;;;;;;;4947175;28;20055;-83
2021/07/02 07:15:31;;;;;;;16.05;11.48;;;;;;;;;;4950223;28;20112;-85
2021/07/02 07:17:57;;;;;;;16.35;10.77;;;;;;;;;;4949339;28;20070;-83
2021/07/02 07:20:23;;;;;;;18.23;11.73;;;;;;;;;;4949060;28;20055;-83
2021/07/02 07:22:50;;;;;;;16.48;11.40;;;;;;;;;;4950272;28;20047;-83
2021/07/02 07:25:16;;;;;;;15.48;11.00;;;;;;;;;;4932535;29;20507;-84
2021/07/02 07:27:46;;;;;;;16.42;11.20;;;;;;;;;;4949326;28;20411;-83
2021/07/02 07:30:14;;;;;;;15.95;10.50;;;;;;;;;;4947258;28;20065;-85
2021/07/02 07:32:41;;;;;;;17.55;11.60;;;;;;;;;;4924708;28;20043;-82
2021/07/02 07:35:17;;;;;;;18.45;11.18;;;;;;;;;;4932232;28;20047;-84
2021/07/02 07:37:45;;;;;;;18.45;11.25;;;;;;;;;;4933525;29;20411;-83
2021/07/02 07:40:12;;;;;;;19.63;12.05;;;;;;;;;;4935900;28;20063;-85
2021/07/02 07:42:38;;;;;;;16.95;11.48;;;;;;;;;;4932234;28;20066;-82
2021/07/02 07:45:04;;;;;;;16.88;11.68;;;;;;;;;;4935668;28;20055;-83
2021/07/02 07:47:30;;;;;;;14.85;11.07;;;;;;;;;;4932588;28;20527;-83
2021/07/02 07:49:57;;;;;;;17.05;11.18;;;;;;;;;;4949457;28;20051;-84
2021/07/02 07:55:08;;;;;;;16.33;11.93;;;;;;;;;;4948869;28;20055;-84
2021/07/02 07:57:35;;;;;;;16.80;11.38;;;;;;;;;;4923589;28;20523;-83
2021/07/02 08:00:05;;;;;;;20.30;11.98;;;;;;;;;;4950071;28;20062;-85
2021/07/02 08:02:37;;;;;;;16.67;11.15;;;;;;;;;;4930292;28;20503;-85
2021/07/02 08:05:04;;;;;;;18.48;11.38;;;;;;;;;;4944238;28;20480;-83
2021/07/02 08:07:35;;;;;;;16.83;10.77;;;;;;;;;;4959728;28;20554;-83
2021/07/02 08:10:02;;;;;;;16.83;11.32;;;;;;;;;;4951407;28;20510;-85
2021/07/02 08:12:29;;;;;;;14.90;11.45;;;;;;;;;;4922756;28;20759;-83
2021/07/02 08:14:55;;;;;;;14.98;10.82;;;;;;;;;;4951394;28;20059;-84
2021/07/02 08:17:23;;;;;;;18.25;11.43;;;;;;;;;;4952634;28;20106;-83
2021/07/02 08:19:50;;;;;;;16.77;11.82;;;;;;;;;;4951452;28;20051;-83
2021/07/02 08:22:17;;;;;;;16.70;11.27;;;;;;;;;;4950265;28;20063;-83
2021/07/02 08:24:46;;;;;;;16.83;11.00;;;;;;;;;;4951135;28;20407;-85
2021/07/02 08:27:12;;;;;;;18.08;11.05;;;;;;;;;;4965187;28;20143;-82
2021/07/02 08:29:38;;;;;;;18.27;11.90;;;;;;;;;;4966236;28;20154;-82
2021/07/02 08:32:05;;;;;;;18.02;11.68;;;;;;;;;;4953352;28;20047;-84
2021/07/02 08:34:31;;;;;;;18.42;11.73;;;;;;;;;;4957279;28;20059;-82
2021/07/02 08:36:58;;;;;;;15.73;11.02;;;;;;;;;;4930623;28;20181;-83
2021/07/02 08:39:24;;;;;;;17.52;12.23;;;;;;;;;;4946720;28;20078;-84
2021/07/02 08:41:51;;;;;;;16.27;11.77;;;;;;;;;;4967680;28;20093;-82
2021/07/02 08:44:20;;;;;;;16.85;11.18;;;;;;;;;;4951240;28;20054;-84
2021/07/02 08:46:47;;;;;;;14.77;11.07;;;;;;;;;;4952195;28;20074;-82
2021/07/02 08:49:13;;;;;;;17.83;11.85;;;;;;;;;;4950695;28;20055;-84
2021/07/02 08:51:39;;;;;;;16.38;11.68;;;;;;;;;;4933126;28;20047;-83
2021/07/02 08:54:05;;;;;;;18.85;12.07;;;;;;;;;;4952712;28;20047;-88
2021/07/02 08:56:32;;;;;;;16.42;11.55;;;;;;;;;;4952440;28;20111;-84
2021/07/02 08:58:58;;;;;;;16.85;12.20;;;;;;;;;;4952648;28;20055;-84
2021/07/02 09:01:35;;;;;;;16.73;11.13;;;;;;;;;;4966443;28;20054;-85
2021/07/02 09:04:20;;;;;;;15.45;11.30;;;;;;;;;;4951076;28;20062;-84
2021/07/02 09:07:00;;;;;;;17.65;11.98;;;;;;;;;;4934989;29;20054;-84
2021/07/02 09:09:44;;;;;;;17.90;12.20;;;;;;;;;;4937426;28;20481;-84
2021/07/02 09:12:11;;;;;;;17.85;12.30;;;;;;;;;;4941882;28;20047;-83
2021/07/02 09:14:37;;;;;;;18.27;12.52;;;;;;;;;;4950017;28;20117;-83
2021/07/02 09:17:10;;;;;;;16.75;11.55;;;;;;;;;;4940435;28;20399;-84
2021/07/02 09:19:37;;;;;;;17.25;12.40;;;;;;;;;;4934876;28;20380;-83
2021/07/02 09:22:14;;;;;;;18.20;11.80;;;;;;;;;;4950413;28;20074;-83
2021/07/02 09:24:43;;;;;;;18.38;12.38;;;;;;;;;;4939335;28;20059;-82
2021/07/02 09:27:23;;;;;;;17.40;12.60;;;;;;;;;;4930819;29;20407;-88
2021/07/02 09:30:06;;;;;;;18.52;13.10;;;;;;;;;;4931636;28;20055;-83
2021/07/02 09:32:54;;;;;;;18.90;14.15;;;;;;;;;;4930205;28;20059;-84
2021/07/02 09:35:23;;;;;;;18.10;12.65;;;;;;;;;;4926919;28;20055;-84
2021/07/02 09:37:52;;;;;;;18.55;13.88;;;;;;;;;;4949670;28;20097;-83
2021/07/02 09:40:21;;;;;;;23.40;14.23;;;;;;;;;;4949529;28;20134;-85
2021/07/02 09:42:47;;;;;;;19.40;12.85;;;;;;;;;;4950390;28;20055;-85
2021/07/02 09:45:23;;;;;;;18.48;12.02;;;;;;;;;;4929484;29;20055;-85
2021/07/02 09:47:49;;;;;;;19.55;12.63;;;;;;;;;;4930915;29;20067;-83
2021/07/02 09:50:15;;;;;;;17.83;11.57;;;;;;;;;;4931594;29;20051;-85
2021/07/02 09:52:51;;;;;;;17.98;12.48;;;;;;;;;;4915861;28;20596;-84
2021/07/02 09:55:19;;;;;;;18.83;11.70;;;;;;;;;;4916274;29;20146;-84
2021/07/02 09:57:45;;;;;;;16.90;11.55;;;;;;;;;;4931174;28;20059;-84
2021/07/02 10:00:13;;;;;;;17.52;12.40;;;;;;;;;;4948733;28;20051;-86
2021/07/02 10:02:40;;;;;;;18.45;12.25;;;;;;;;;;4941435;28;20062;-84
2021/07/02 10:05:12;;;;;;;18.20;12.63;;;;;;;;;;4960520;28;20059;-86
2021/07/02 10:07:38;;;;;;;19.33;12.25;;;;;;;;;;4964648;28;20062;-84
2021/07/02 10:10:05;;;;;;;17.92;12.45;;;;;;;;;;4950643;28;20063;-85
2021/07/02 10:12:32;;;;;;;17.75;11.55;;;;;;;;;;4963402;28;20054;-85
2021/07/02 10:14:58;;;;;;;16.23;11.60;;;;;;;;;;4964558;28;20130;-84
2021/07/02 10:17:26;;;;;;;17.23;12.10;;;;;;;;;;4954564;28;20517;-83
2021/07/02 10:19:53;;;;;;;16.77;11.93;;;;;;;;;;4929808;28;20052;-83
2021/07/02 10:22:21;;;;;;;16.58;11.85;;;;;;;;;;4944730;28;20058;-83
2021/07/02 10:24:48;;;;;;;16.38;12.15;;;;;;;;;;4956837;28;20059;-84
2021/07/02 10:27:15;;;;;;;18.38;12.98;;;;;;;;;;4943723;28;20061;-87
2021/07/02 10:29:42;;;;;;;15.85;11.73;;;;;;;;;;4952250;28;20059;-84
2021/07/02 10:32:16;;;;;;;15.82;11.55;;;;;;;;;;4933912;28;20057;-83
2021/07/02 10:35:07;;;;;;;15.88;11.07;;;;;;;;;;4933610;28;20459;-83
2021/07/02 10:37:46;;;;;;;17.15;10.20;;;;;;;;;;4936950;28;20055;-84
2021/07/02 10:40:33;;;;;;;16.02;10.88;;;;;;;;;;4928600;29;20079;-89
2021/07/02 10:43:23;;;;;;;16.27;11.73;;;;;;;;;;4926302;28;20079;-84
2021/07/02 10:46:07;;;;;;;16.08;11.63;;;;;;;;;;4944559;28;20062;-84
2021/07/02 10:48:52;;;;;;;17.88;12.07;;;;;;;;;;4949415;28;20139;-84
2021/07/02 10:51:31;;;;;;;17.38;11.82;;;;;;;;;;4964729;28;20047;-84
2021/07/02 10:54:32;;;;;;;17.88;11.65;;;;;;;;;;4951001;28;20047;-85
2021/07/02 10:57:04;;;;;;;16.95;12.15;;;;;;;;;;4864623;29;20545;-86
2021/07/02 10:59:40;;;;;;;14.73;10.20;;;;;;;;;;4936765;28;20062;-85
2021/07/02 11:04:33;;;;;;;12.57;8.45;;;;;;;;;;4950804;28;20062;-85
2021/07/02 11:07:00;;;;;;;14.45;9.75;;;;;;;;;;4950052;28;20652;-85
2021/07/02 11:09:44;;;;;;;14.75;9.63;;;;;;;;;;4949353;28;20399;-84
2021/07/02 11:12:12;;;;;;;10.73;8.38;;;;;;;;;;4951270;28;20476;-84
2021/07/02 11:14:53;;;;;;;14.75;9.07;;;;;;;;;;4949051;28;22535;-85
2021/07/02 11:17:26;;;;;;;12.70;9.20;;;;;;;;;;4933651;28;20085;-84
2021/07/02 11:20:08;;;;;;;12.13;7.95;;;;;;;;;;4931535;29;20051;-84
2021/07/02 11:22:37;;;;;;;13.25;7.82;;;;;;;;;;4931559;29;20087;-85
2021/07/02 11:25:04;;;;;;;12.38;8.63;;;;;;;;;;4931482;29;20059;-84
2021/07/02 11:27:44;;;;;;;9.80;7.35;;;;;;;;;;4940037;28;20124;-85
2021/07/02 11:30:16;;;;;;;11.55;7.45;;;;;;;;;;4950996;28;20480;-85
2021/07/02 11:32:45;;;;;;;10.80;7.57;;;;;;;;;;4948582;28;20083;-85
2021/07/02 11:35:19;;;;;;;9.30;7.30;;;;;;;;;;4931213;29;20067;-87
2021/07/02 11:38:01;;;;;;;12.32;7.22;;;;;;;;;;4931935;29;20056;-84
2021/07/02 11:40:31;;;;;;;11.70;7.68;;;;;;;;;;4917750;29;20063;-85
2021/07/02 11:42:58;;;;;;;11.70;7.47;;;;;;;;;;4934405;28;20051;-85
2021/07/02 11:45:41;;;;;;;9.02;6.85;;;;;;;;;;4952675;28;20051;-85
2021/07/02 11:48:08;;;;;;;10.88;7.10;;;;;;;;;;4954213;28;20059;-84
2021/07/02 11:50:38;;;;;;;9.25;7.00;;;;;;;;;;4952460;28;20054;-84
2021/07/02 11:53:04;;;;;;;10.55;6.85;;;;;;;;;;4953959;28;20051;-84
2021/07/02 11:55:30;;;;;;;10.32;7.25;;;;;;;;;;4953355;28;20039;-87
2021/07/02 11:58:16;;;;;;;10.15;7.70;;;;;;;;;;4946794;28;20061;-85
2021/07/02 12:00:42;;;;;;;10.45;7.13;;;;;;;;;;4954038;28;20113;-84
2021/07/02 12:03:09;;;;;;;8.85;6.32;;;;;;;;;;4953538;28;20063;-83
2021/07/02 12:05:36;;;;;;;11.75;6.82;;;;;;;;;;4952780;28;20142;-83
2021/07/02 12:08:03;;;;;;;8.90;6.63;;;;;;;;;;4954131;28;20051;-84
2021/07/02 12:10:30;;;;;;;7.97;6.07;;;;;;;;;;4953138;28;20059;-83
2021/07/02 12:13:06;;;;;;;8.15;6.63;;;;;;;;;;4954922;28;20054;-83
2021/07/02 12:15:32;;;;;;;9.25;6.45;;;;;;;;;;4951212;28;20143;-85
2021/07/02 12:18:05;;;;;;;8.10;5.45;;;;;;;;;;4950721;28;20051;-85
2021/07/02 12:20:32;;;;;;;9.00;5.68;;;;;;;;;;4950044;28;20059;-83
2021/07/02 12:23:02;;;;;;;8.32;6.10;;;;;;;;;;4949910;28;20051;-84
2021/07/02 12:25:28;;;;;;;9.70;6.40;;;;;;;;;;4948118;28;20056;-84
2021/07/02 12:27:59;;;;;;;12.13;7.32;;;;;;;;;;4952777;28;20058;-83
2021/07/02 12:30:25;;;;;;;9.20;6.55;;;;;;;;;;4952473;28;20078;-83
2021/07/02 12:32:52;;;;;;;8.13;6.22;;;;;;;;;;4950378;28;20051;-84
2021/07/02 12:35:18;;;;;;;8.10;5.90;;;;;;;;;;4949639;28;20051;-85
2021/07/02 12:37:45;;;;;;;8.75;5.80;;;;;;;;;;4950691;28;20150;-84
2021/07/02 12:40:13;;;;;;;8.57;5.38;;;;;;;;;;4949241;28;20598;-85
2021/07/02 12:42:42;;;;;;;9.70;6.28;;;;;;;;;;4951472;28;20047;-82
2021/07/02 12:45:12;;;;;;;8.90;5.50;;;;;;;;;;4948919;28;20134;-85
2021/07/02 12:47:39;;;;;;;6.47;5.43;;;;;;;;;;4942207;28;20055;-84
2021/07/02 12:50:11;;;;;;;8.00;5.65;;;;;;;;;;4950605;28;20090;-84
2021/07/02 12:55:03;;;;;;;7.35;5.97;;;;;;;;;;4952365;28;20573;-85
2021/07/02 12:57:30;;;;;;;6.90;5.60;;;;;;;;;;4951527;28;20080;-86
2021/07/02 12:59:56;;;;;;;8.23;5.35;;;;;;;;;;4941863;28;20102;-84
2021/07/02 13:02:34;;;;;;;8.90;5.85;;;;;;;;;;4952358;28;20055;-85
2021/07/02 13:05:02;;;;;;;8.70;6.00;;;;;;;;;;4953646;28;20065;-84
2021/07/02 13:07:44;;;;;;;7.47;5.55;;;;;;;;;;4949379;28;20055;-82
2021/07/02 13:10:12;;;;;;;8.35;5.95;;;;;;;;;;4948288;28;20097;-84
2021/07/02 13:12:38;;;;;;;6.57;5.78;;;;;;;;;;4949489;28;20055;-85
2021/07/02 13:15:05;;;;;;;6.32;4.93;;;;;;;;;;4955320;28;20106;-84
2021/07/02 13:17:41;;;;;;;7.15;5.57;;;;;;;;;;4954124;28;20055;-84
2021/07/02 13:20:08;;;;;;;8.32;5.45;;;;;;;;;;4950229;28;20058;-84
2021/07/02 13:22:34;;;;;;;8.70;5.15;;;;;;;;;;4949096;28;20055;-84
2021/07/02 13:25:06;;;;;;;7.07;5.63;;;;;;;;;;4950479;28;20058;-84
2021/07/02 13:27:32;;;;;;;7.40;5.68;;;;;;;;;;4950257;28;20066;-84
2021/07/02 13:30:03;;;;;;;7.82;4.88;;;;;;;;;;4950605;28;20111;-84
2021/07/02 13:32:30;;;;;;;8.50;5.10;;;;;;;;;;4950006;28;20051;-84
2021/07/02 13:34:56;;;;;;;8.20;5.50;;;;;;;;;;4951929;28;20055;-84
2021/07/02 13:37:29;;;;;;;8.55;5.70;;;;;;;;;;4950839;28;20059;-83
2021/07/02 13:39:55;;;;;;;13.95;6.18;;;;;;;;;;4950489;28;20142;-84
2021/07/02 13:42:25;;;;;;;15.75;6.35;;;;;;;;;;4949762;28;20484;-84
2021/07/02 13:44:56;;;;;;;7.35;4.78;;;;;;;;;;4951413;28;20055;-84
2021/07/02 13:47:26;;;;;;;6.13;4.30;;;;;;;;;;4940529;28;20047;-84
2021/07/02 13:49:52;;;;;;;7.43;4.15;;;;;;;;;;4950264;28;20054;-84
2021/07/02 13:52:18;;;;;;;7.10;4.57;;;;;;;;;;4950265;28;20047;-84
2021/07/02 13:54:45;;;;;;;6.70;4.32;;;;;;;;;;4951406;28;20101;-85
2021/07/02 13:57:11;;;;;;;7.10;4.57;;;;;;;;;;4950957;28;20055;-84
2021/07/02 13:59:39;;;;;;;7.53;4.22;;;;;;;;;;4950431;28;20341;-86
2021/07/02 14:02:05;;;;;;;6.55;4.20;;;;;;;;;;4950473;28;20495;-83
2021/07/02 14:04:31;;;;;;;6.88;3.30;;;;;;;;;;4946844;28;20063;-83
2021/07/02 14:06:58;;;;;;;7.22;3.78;;;;;;;;;;4948635;28;20134;-85
2021/07/02 14:09:24;;;;;;;6.07;3.67;;;;;;;;;;4949264;29;20575;-83
2021/07/02 14:11:51;;;;;;;4.70;3.08;;;;;;;;;;4950783;28;20062;-84
2021/07/02 14:14:17;;;;;;;5.05;3.53;;;;;;;;;;4951144;28;20057;-84
2021/07/02 14:16:44;;;;;;;5.53;2.97;;;;;;;;;;4950215;28;20083;-85
2021/07/02 14:19:10;;;;;;;4.18;2.80;;;;;;;;;;4950983;28;21943;-83
2021/07/02 14:21:38;;;;;;;3.38;2.70;;;;;;;;;;4931505;28;20158;-83
2021/07/02 14:24:05;;;;;;;3.83;2.40;;;;;;;;;;4942103;28;20054;-84
2021/07/02 14:26:31;;;;;;;6.03;3.45;;;;;;;;;;4949150;28;20443;-85
2021/07/02 14:28:57;;;;;;;4.82;3.13;;;;;;;;;;4947361;28;20047;-83
2021/07/02 14:31:23;;;;;;;5.22;3.30;;;;;;;;;;4936379;28;20055;-84
2021/07/02 14:33:50;;;;;;;4.53;3.20;;;;;;;;;;4949295;28;20055;-86
2021/07/02 14:36:16;;;;;;;6.82;3.22;;;;;;;;;;4953074;28;20050;-83
2021/07/02 14:38:42;;;;;;;4.82;2.92;;;;;;;;;;4948999;28;20091;-84
2021/07/02 14:41:09;;;;;;;8.60;3.75;;;;;;;;;;4949401;28;20125;-83